Time;durP1;ratioP1;P1;durP2;ratioP2;P2;SDS_P1;SDS_P2;PMS_P1;PMS_P2;Temp;Humidity;BMP_temperature;BMP_pressure;BME280_temperature;BME280_humidity;BME280_pressure;Samples;Min_cycle;Max_cycle;Signal;HPM_P1;HPM_P2
2021/10/11 05:15:53;;;;;;;53.38;31.35;;;;;;;-1.37;67.14;100775.41;5006132;28;105952;-64
2021/10/11 05:18:18;;;;;;;74.25;35.83;;;;;;;-1.32;67.56;100776.94;5005005;28;105957;-64
2021/10/11 05:20:51;;;;;;;66.07;35.63;;;;;;;-1.23;67.59;100768.59;5004665;28;106313;-65
2021/10/11 05:23:18;;;;;;;62.22;33.75;;;;;;;-1.13;67.80;100771.59;5003868;28;105853;-64
2021/10/11 05:25:46;;;;;;;64.53;35.53;;;;;;;-1.04;67.91;100766.72;5004094;28;105952;-65
2021/10/11 05:28:11;;;;;;;75.72;36.25;;;;;;;-0.90;68.17;100759.91;5002842;28;106394;-64
2021/10/11 05:30:41;;;;;;;75.10;31.33;;;;;;;-0.78;68.39;100759.25;5004136;28;106099;-65
2021/10/11 05:33:10;;;;;;;68.93;32.05;;;;;;;-0.62;67.91;100755.78;5003819;28;105763;-65
2021/10/11 05:35:39;;;;;;;62.25;30.95;;;;;;;-0.47;68.20;100747.06;5003809;28;106059;-65
2021/10/11 05:38:05;;;;;;;65.28;32.15;;;;;;;-0.32;68.43;100747.16;5004462;28;106251;-65
2021/10/11 05:40:32;;;;;;;74.65;35.63;;;;;;;-0.18;68.31;100742.84;5004237;28;106193;-65
2021/10/11 05:42:58;;;;;;;66.35;33.00;;;;;;;-0.06;67.87;100745.66;5004120;28;105712;-64
2021/10/11 05:45:23;;;;;;;58.28;31.30;;;;;;;0.05;68.21;100750.28;5003273;28;106101;-64
2021/10/11 05:47:49;;;;;;;65.07;32.78;;;;;;;0.15;68.33;100751.44;5004880;28;105908;-64
2021/10/11 05:50:14;;;;;;;63.35;31.77;;;;;;;0.24;67.98;100740.41;5003353;28;106682;-64
2021/10/11 05:52:40;;;;;;;63.80;32.40;;;;;;;0.35;68.26;100742.41;5003976;28;107152;-64
2021/10/11 05:55:06;;;;;;;65.90;32.90;;;;;;;0.46;68.54;100741.78;5003090;28;106043;-64
2021/10/11 05:57:32;;;;;;;68.80;34.78;;;;;;;0.55;68.32;100748.25;5004286;28;106240;-64
2021/10/11 05:59:58;;;;;;;65.32;33.63;;;;;;;0.64;68.38;100753.78;5003613;28;106007;-64
2021/10/11 06:02:23;;;;;;;64.50;32.00;;;;;;;0.75;67.85;100749.66;5003545;28;106638;-64
2021/10/11 06:04:49;;;;;;;58.60;28.05;;;;;;;0.87;68.61;100754.16;5003675;28;105985;-63
2021/10/11 06:07:14;;;;;;;55.67;27.55;;;;;;;1.09;68.54;100752.84;5003336;28;106487;-63
2021/10/11 06:09:41;;;;;;;58.55;29.80;;;;;;;1.25;68.39;100756.19;5004194;28;106168;-63
2021/10/11 06:12:06;;;;;;;53.63;28.55;;;;;;;1.50;68.61;100754.66;5003321;28;106937;-64
2021/10/11 06:14:31;;;;;;;60.63;29.42;;;;;;;1.74;68.88;100744.34;5003178;28;105916;-64
2021/10/11 06:16:57;;;;;;;57.88;27.90;;;;;;;2.00;68.64;100744.44;5004599;28;106069;-65
2021/10/11 06:19:22;;;;;;;60.58;31.50;;;;;;;2.24;68.61;100739.31;5003884;28;106231;-64
2021/10/11 06:21:47;;;;;;;54.97;26.75;;;;;;;2.50;68.49;100737.56;5003054;28;106226;-65
2021/10/11 06:24:13;;;;;;;50.60;27.27;;;;;;;2.67;67.87;100741.66;5003408;28;106006;-63
2021/10/11 06:26:39;;;;;;;52.20;27.73;;;;;;;2.78;67.66;100742.72;4994095;28;105858;-63
2021/10/11 06:29:04;;;;;;;57.58;29.98;;;;;;;2.86;67.29;100756.19;4989922;28;106249;-65
2021/10/11 06:31:30;;;;;;;56.13;28.70;;;;;;;3.11;68.03;100746.59;4990291;28;106616;-65
2021/10/11 06:33:55;;;;;;;58.92;29.23;;;;;;;3.35;67.74;100750.09;4989461;28;106058;-66
2021/10/11 06:36:21;;;;;;;54.00;26.98;;;;;;;3.63;67.59;100747.28;4987987;28;106016;-66
2021/10/11 06:38:46;;;;;;;44.17;26.05;;;;;;;3.69;66.30;100739.75;4988388;28;105950;-65
2021/10/11 06:41:11;;;;;;;48.97;25.27;;;;;;;3.85;67.26;100736.00;4990006;28;106015;-64
2021/10/11 06:43:37;;;;;;;49.30;25.45;;;;;;;4.11;67.39;100736.69;4988344;28;105935;-66
2021/10/11 06:46:02;;;;;;;43.90;24.92;;;;;;;4.33;66.74;100730.66;4988090;28;106151;-66
2021/10/11 06:48:28;;;;;;;44.75;23.73;;;;;;;4.51;66.31;100733.69;4987481;28;106270;-65
2021/10/11 06:50:53;;;;;;;43.67;24.23;;;;;;;4.65;66.07;100735.25;4987327;28;106389;-67
2021/10/11 06:53:18;;;;;;;41.83;23.20;;;;;;;4.77;65.34;100737.91;4987407;28;106158;-68
2021/10/11 06:55:44;;;;;;;41.90;24.33;;;;;;;4.93;65.52;100737.56;4988296;28;107186;-66
2021/10/11 06:58:09;;;;;;;52.17;26.45;;;;;;;5.15;65.34;100747.25;4988510;28;106282;-66
2021/10/11 07:00:36;;;;;;;50.13;25.42;;;;;;;5.32;64.90;100741.47;4989742;28;106720;-67
2021/10/11 07:03:04;;;;;;;43.58;24.63;;;;;;;5.54;64.85;100752.97;4989713;28;105788;-67
2021/10/11 07:05:30;;;;;;;60.47;26.10;;;;;;;5.77;64.83;100743.19;4989896;28;106297;-67
2021/10/11 07:07:57;;;;;;;48.92;25.83;;;;;;;6.05;64.67;100727.69;4989465;28;106335;-66
2021/10/11 07:10:23;;;;;;;64.13;28.33;;;;;;;6.33;64.40;100739.47;4989392;28;105981;-66
2021/10/11 07:12:48;;;;;;;42.72;23.73;;;;;;;6.67;64.58;100739.25;4989116;28;105916;-66
2021/10/11 07:15:13;;;;;;;52.53;23.52;;;;;;;6.94;63.17;100732.53;4989731;28;105915;-66
2021/10/11 07:17:39;;;;;;;41.75;22.67;;;;;;;7.13;62.25;100731.75;4989835;28;106156;-67
2021/10/11 07:20:05;;;;;;;42.22;22.42;;;;;;;7.28;62.29;100729.56;4989244;28;105906;-66
2021/10/11 07:22:30;;;;;;;40.88;22.52;;;;;;;7.55;62.40;100726.28;4989260;28;106040;-66
2021/10/11 07:24:56;;;;;;;36.75;19.58;;;;;;;7.86;62.13;100733.28;4989481;28;106523;-66
2021/10/11 07:27:21;;;;;;;38.70;21.20;;;;;;;7.93;60.75;100732.59;4988394;28;106181;-65
2021/10/11 07:29:46;;;;;;;41.47;21.52;;;;;;;8.26;61.78;100734.97;4989090;28;106643;-66
2021/10/11 07:32:12;;;;;;;42.90;23.98;;;;;;;8.79;62.38;100725.66;4989459;28;105814;-66
2021/10/11 07:34:38;;;;;;;44.80;23.48;;;;;;;9.24;61.46;100730.19;4990030;28;105887;-67
2021/10/11 07:37:05;;;;;;;41.70;22.10;;;;;;;9.74;60.72;100736.03;4988622;28;105804;-66
2021/10/11 07:39:30;;;;;;;37.00;22.73;;;;;;;10.08;59.60;100722.84;4988226;28;106629;-67
2021/10/11 07:41:58;;;;;;;50.40;22.83;;;;;;;10.27;58.35;100716.50;4988322;28;105891;-66
2021/10/11 07:44:23;;;;;;;39.10;21.88;;;;;;;10.51;57.21;100717.69;4988593;28;106318;-67
2021/10/11 07:46:52;;;;;;;38.42;20.00;;;;;;;10.72;57.39;100721.84;4988088;28;106179;-66
2021/10/11 07:49:18;;;;;;;38.53;19.33;;;;;;;10.95;55.77;100724.78;4986944;28;106028;-68
2021/10/11 07:51:43;;;;;;;32.95;18.75;;;;;;;11.05;56.38;100719.34;4988232;28;105825;-63
2021/10/11 07:54:09;;;;;;;40.53;19.60;;;;;;;11.37;55.90;100718.59;4989473;28;106325;-71
2021/10/11 07:56:37;;;;;;;39.08;18.52;;;;;;;11.92;56.94;100705.66;4988966;28;106203;-70
2021/10/11 07:59:02;;;;;;;37.38;18.10;;;;;;;12.68;56.38;100711.63;4988630;28;105921;-67
2021/10/11 08:01:28;;;;;;;40.78;19.63;;;;;;;13.59;55.58;100722.78;4988662;28;105980;-69
2021/10/11 08:03:53;;;;;;;30.55;16.70;;;;;;;14.30;53.28;100716.41;4989317;28;106146;-69
2021/10/11 08:06:18;;;;;;;31.88;17.58;;;;;;;15.14;51.70;100708.09;4989294;28;106184;-70
2021/10/11 08:08:44;;;;;;;29.23;17.17;;;;;;;17.73;51.36;100705.81;4988725;28;106019;-67
2021/10/11 08:11:09;;;;;;;29.17;13.98;;;;;;;20.86;46.87;100707.31;4988770;28;106092;-74
2021/10/11 08:13:34;;;;;;;30.15;14.80;;;;;;;23.68;42.61;100708.00;4988305;28;106082;-74
2021/10/11 08:16:01;;;;;;;27.50;14.40;;;;;;;25.90;37.64;100711.75;4988494;28;106445;-76
2021/10/11 08:18:26;;;;;;;30.15;15.50;;;;;;;26.72;32.65;100708.81;4988359;28;106171;-75
2021/10/11 08:20:52;;;;;;;28.45;15.82;;;;;;;27.68;30.30;100704.72;4988204;28;106047;-77
2021/10/11 08:23:17;;;;;;;30.33;16.10;;;;;;;28.88;27.01;100717.19;4988773;28;106100;-73
2021/10/11 08:25:44;;;;;;;26.65;17.83;;;;;;;30.04;24.75;100713.22;4989104;28;106119;-75
2021/10/11 08:28:09;;;;;;;33.90;19.33;;;;;;;31.03;22.56;100715.75;4988585;28;106548;-76
2021/10/11 08:30:35;;;;;;;39.85;19.23;;;;;;;31.01;21.95;100718.75;4988508;28;105959;-71
2021/10/11 08:33:01;;;;;;;27.95;18.10;;;;;;;32.11;21.77;100702.25;4989356;28;106488;-73
2021/10/11 08:35:26;;;;;;;26.75;17.02;;;;;;;33.53;20.20;100704.31;4960120;28;106691;-73
2021/10/11 08:37:52;;;;;;;30.42;17.33;;;;;;;31.41;20.03;100710.25;4948755;28;106020;-68
2021/10/11 08:40:19;;;;;;;23.65;15.57;;;;;;;29.11;21.71;100709.41;4948572;28;106013;-68
2021/10/11 08:42:45;;;;;;;28.95;16.25;;;;;;;28.27;22.34;100715.41;4949246;28;105988;-69
2021/10/11 08:45:10;;;;;;;27.80;14.95;;;;;;;29.43;21.48;100708.16;4948509;28;106216;-69
2021/10/11 08:47:36;;;;;;;26.23;18.02;;;;;;;30.31;19.87;100709.09;4948549;28;106010;-68
2021/10/11 08:50:03;;;;;;;25.02;16.13;;;;;;;29.65;20.00;100700.31;4948136;28;106302;-68
2021/10/11 08:52:28;;;;;;;24.73;15.52;;;;;;;28.66;20.97;100699.16;4949367;28;106127;-69
2021/10/11 08:54:54;;;;;;;19.33;13.52;;;;;;;28.05;21.30;100702.00;4948704;28;106127;-69
2021/10/11 08:57:24;;;;;;;20.27;12.75;;;;;;;28.05;21.34;100704.75;4948204;28;106043;-69
2021/10/11 08:59:50;;;;;;;;;;;;;;;27.89;20.93;100693.78;4948175;28;106514;-69
2021/10/11 09:02:20;;;;;;;23.23;13.63;;;;;;;28.79;20.84;100694.22;4949616;28;106132;-68
2021/10/11 09:04:51;;;;;;;24.67;12.95;;;;;;;30.97;19.07;100700.38;4947166;28;106145;-68
2021/10/11 09:07:30;;;;;;;19.50;13.13;;;;;;;33.55;16.96;100696.56;4948098;28;105894;-78
2021/10/11 09:09:57;;;;;;;20.67;12.73;;;;;;;36.12;15.10;100691.00;4948506;28;106008;-73
2021/10/11 09:12:27;;;;;;;18.50;11.80;;;;;;;36.76;14.03;100689.28;4947467;28;106049;-75
2021/10/11 09:15:15;;;;;;;19.17;12.35;;;;;;;34.41;15.21;100689.13;4947280;28;106137;-77
2021/10/11 09:17:45;;;;;;;19.95;12.35;;;;;;;33.51;15.87;100684.50;4948199;28;105975;-77
2021/10/11 09:20:23;;;;;;;20.02;11.90;;;;;;;32.09;15.94;100685.22;4947791;28;107344;-75
2021/10/11 09:22:52;;;;;;;17.38;12.07;;;;;;;32.05;16.38;100685.81;4948672;28;106037;-77
2021/10/11 09:25:20;;;;;;;16.63;11.55;;;;;;;33.27;15.57;100682.84;4947892;28;106504;-75
2021/10/11 09:27:54;;;;;;;17.98;12.00;;;;;;;33.85;14.41;100683.94;4947720;28;106236;-76
2021/10/11 09:30:29;;;;;;;20.02;11.80;;;;;;;34.00;14.08;100668.91;4948041;28;105823;-75
2021/10/11 09:33:15;;;;;;;15.75;9.60;;;;;;;33.32;14.46;100674.44;4948629;28;106000;-75
2021/10/11 09:35:42;;;;;;;20.20;10.70;;;;;;;32.92;14.46;100665.97;4948588;28;105907;-74
2021/10/11 09:38:21;;;;;;;16.85;9.82;;;;;;;33.16;14.84;100660.19;4948413;28;105855;-75
2021/10/11 09:40:49;;;;;;;15.70;9.35;;;;;;;32.75;14.71;100657.50;4948417;28;105891;-76
2021/10/11 09:43:17;;;;;;;15.55;9.15;;;;;;;33.26;14.89;100650.88;4948396;28;106087;-77
2021/10/11 09:45:43;;;;;;;24.65;16.13;;;;;;;33.17;14.74;100652.69;4947917;28;106203;-78
2021/10/11 09:48:09;;;;;;;13.07;9.55;;;;;;;32.19;15.12;100651.97;4940854;28;106989;-78
2021/10/11 09:50:35;;;;;;;15.77;9.40;;;;;;;30.99;15.91;100648.63;4947566;28;106298;-78
2021/10/11 09:53:02;;;;;;;14.20;9.38;;;;;;;29.26;16.82;100648.19;4948723;28;106181;-77
2021/10/11 09:55:28;;;;;;;15.02;10.02;;;;;;;27.49;18.18;100643.44;4948317;28;106531;-76
2021/10/11 09:57:54;;;;;;;18.10;10.52;;;;;;;26.27;19.40;100648.16;4948212;28;106968;-81
2021/10/11 10:00:19;;;;;;;18.85;9.85;;;;;;;25.50;20.20;100640.19;4948059;28;105928;-78
2021/10/11 10:02:48;;;;;;;16.55;10.20;;;;;;;24.46;20.87;100638.19;4952105;28;105971;-75
2021/10/11 10:05:23;;;;;;;18.50;9.77;;;;;;;23.93;21.74;100634.97;4951051;28;106126;-76
2021/10/11 10:07:50;;;;;;;15.77;9.85;;;;;;;23.97;21.85;100633.41;4951454;28;106267;-75
2021/10/11 10:10:20;;;;;;;17.67;9.88;;;;;;;23.95;21.85;100627.41;4933702;28;106108;-75
2021/10/11 10:12:48;;;;;;;20.10;9.95;;;;;;;23.88;21.99;100621.31;4931554;28;106017;-76
2021/10/11 10:15:36;;;;;;;15.45;9.10;;;;;;;24.03;22.04;100625.31;4931960;28;106137;-75
2021/10/11 10:18:07;;;;;;;14.70;9.02;;;;;;;25.36;21.26;100617.16;4912944;28;106019;-75
2021/10/11 10:20:34;;;;;;;21.38;14.65;;;;;;;27.64;19.08;100607.84;4915770;28;105896;-78
2021/10/11 10:23:00;;;;;;;15.05;9.15;;;;;;;29.57;17.70;100606.75;4917023;28;105857;-74
2021/10/11 10:25:27;;;;;;;14.05;8.98;;;;;;;31.18;16.31;100599.13;4911994;28;106224;-74
2021/10/11 10:27:54;;;;;;;12.68;8.75;;;;;;;32.34;15.48;100601.22;4911924;28;107879;-77
2021/10/11 10:30:25;;;;;;;12.82;8.98;;;;;;;34.25;13.88;100605.75;4912056;28;106382;-78
2021/10/11 10:33:02;;;;;;;13.93;9.43;;;;;;;33.95;14.06;100599.97;4912804;28;105823;-79
2021/10/11 10:35:31;;;;;;;13.50;9.15;;;;;;;31.83;15.52;100597.53;4912221;28;105945;-76
2021/10/11 10:37:57;;;;;;;15.45;8.75;;;;;;;29.07;17.91;100601.38;4911686;28;105813;-80
2021/10/11 10:40:31;;;;;;;12.10;8.07;;;;;;;26.78;19.02;100585.59;4911847;28;105845;-77
2021/10/11 10:43:19;;;;;;;9.52;7.28;;;;;;;24.79;20.80;100581.94;4914063;28;106096;-76
2021/10/11 10:45:48;;;;;;;14.18;7.40;;;;;;;23.35;22.28;100595.38;4912046;28;105949;-74
2021/10/11 10:48:25;;;;;;;10.65;6.80;;;;;;;21.97;23.46;100585.00;4911801;28;106073;-74
2021/10/11 10:50:52;;;;;;;14.02;7.50;;;;;;;20.95;24.75;100578.69;4911974;28;106404;-76
2021/10/11 10:53:19;;;;;;;12.20;7.22;;;;;;;20.29;25.67;100573.00;4912476;28;106017;-75
2021/10/11 10:55:44;;;;;;;10.48;7.22;;;;;;;19.78;26.68;100568.72;4911976;28;106636;-76
2021/10/11 10:58:13;;;;;;;10.98;6.53;;;;;;;19.30;27.37;100572.00;4911596;28;105957;-73
2021/10/11 11:00:39;;;;;;;12.13;7.30;;;;;;;18.92;27.88;100561.03;4929403;28;106207;-74
2021/10/11 11:03:13;;;;;;;12.82;7.13;;;;;;;18.65;28.49;100565.72;4930345;28;106049;-74
2021/10/11 11:05:41;;;;;;;9.80;6.80;;;;;;;18.50;28.66;100555.19;4929815;28;106047;-75
2021/10/11 11:08:07;;;;;;;12.63;7.60;;;;;;;18.77;28.74;100555.88;4929238;28;106609;-73
2021/10/11 11:10:36;;;;;;;10.73;6.40;;;;;;;18.96;28.61;100557.88;4929120;28;106057;-77
2021/10/11 11:13:05;;;;;;;10.73;6.68;;;;;;;18.80;28.70;100551.94;4930435;28;106065;-76
2021/10/11 11:15:35;;;;;;;11.27;6.50;;;;;;;18.44;29.14;100547.97;4930252;28;106307;-76
2021/10/11 11:18:09;;;;;;;9.27;5.82;;;;;;;18.22;29.24;100556.31;4929475;28;106748;-77
2021/10/11 11:20:37;;;;;;;14.27;6.40;;;;;;;18.32;29.56;100546.97;4930400;28;106026;-76
2021/10/11 11:23:08;;;;;;;11.95;5.80;;;;;;;18.15;29.63;100542.03;4929769;28;106050;-75
2021/10/11 11:25:38;;;;;;;10.88;6.35;;;;;;;17.91;29.80;100541.66;4929247;28;106056;-77
2021/10/11 11:28:06;;;;;;;12.90;6.70;;;;;;;17.53;30.16;100538.78;4929095;28;106070;-76
2021/10/11 11:30:31;;;;;;;11.52;6.05;;;;;;;17.27;30.88;100543.13;4928923;28;106018;-76
2021/10/11 11:33:03;;;;;;;10.18;6.60;;;;;;;17.27;30.91;100545.00;4930255;28;105953;-77
2021/10/11 11:35:32;;;;;;;11.98;6.30;;;;;;;17.29;31.09;100548.28;4929420;28;106410;-76
2021/10/11 11:38:00;;;;;;;11.63;6.15;;;;;;;17.18;31.33;100555.97;4928495;28;108656;-76
2021/10/11 11:40:30;;;;;;;9.65;6.03;;;;;;;17.09;31.81;100551.78;4928906;28;106125;-78
2021/10/11 11:42:56;;;;;;;10.48;6.13;;;;;;;17.14;31.88;100557.41;4929896;28;106299;-76
2021/10/11 11:45:34;;;;;;;15.32;7.18;;;;;;;17.08;32.08;100555.50;4928910;28;105998;-74
2021/10/11 11:48:16;;;;;;;10.20;6.10;;;;;;;16.98;32.40;100557.78;4924856;28;107330;-75
2021/10/11 11:50:42;;;;;;;10.13;6.55;;;;;;;16.84;32.37;100551.47;4930295;28;106164;-73
2021/10/11 11:53:12;;;;;;;13.38;5.80;;;;;;;16.66;32.96;100560.13;4931056;28;105883;-71
2021/10/11 11:55:39;;;;;;;12.13;5.90;;;;;;;16.41;33.15;100557.94;4930462;28;106082;-72
2021/10/11 11:58:12;;;;;;;9.07;5.50;;;;;;;16.19;33.71;100555.34;4930822;28;106614;-72
2021/10/11 12:00:38;;;;;;;9.50;5.80;;;;;;;16.13;33.69;100550.78;4946790;28;108392;-74
2021/10/11 12:03:04;;;;;;;11.20;5.95;;;;;;;16.24;33.87;100552.91;4949062;28;106062;-74
2021/10/11 12:05:30;;;;;;;11.85;5.85;;;;;;;16.37;33.77;100543.25;4947712;28;107870;-73
2021/10/11 12:07:56;;;;;;;9.35;5.65;;;;;;;16.56;33.49;100547.06;4949349;28;106840;-74
2021/10/11 12:10:23;;;;;;;7.75;5.15;;;;;;;17.12;33.23;100548.69;4947678;28;105926;-74
2021/10/11 12:12:59;;;;;;;7.40;5.05;;;;;;;18.06;32.28;100535.22;4950198;28;105811;-76
2021/10/11 12:15:26;;;;;;;15.43;6.15;;;;;;;18.50;31.40;100533.59;4949820;28;105825;-78
2021/10/11 12:18:12;;;;;;;9.00;5.13;;;;;;;18.43;31.38;100527.41;4949549;28;105952;-77
2021/10/11 12:20:46;;;;;;;10.85;6.03;;;;;;;18.18;31.46;100528.13;4948674;28;106090;-78
2021/10/11 12:23:13;;;;;;;12.60;7.93;;;;;;;18.01;31.96;100521.53;4948824;28;106081;-74
2021/10/11 12:25:38;;;;;;;11.00;6.43;;;;;;;18.03;32.33;100522.13;4948970;28;106109;-81
2021/10/11 12:28:18;;;;;;;9.82;6.55;;;;;;;18.16;32.12;100518.59;4949783;28;106858;-75
2021/10/11 12:30:48;;;;;;;13.60;6.30;;;;;;;18.24;32.03;100527.25;4949049;28;106778;-73
2021/10/11 12:33:17;;;;;;;10.35;7.07;;;;;;;18.32;31.90;100515.44;4949635;28;105886;-72
2021/10/11 12:35:44;;;;;;;10.65;6.40;;;;;;;18.11;32.25;100516.50;4949409;28;106208;-77
2021/10/11 12:38:11;;;;;;;11.35;6.72;;;;;;;17.79;32.48;100519.06;4949199;28;106414;-74
2021/10/11 12:40:38;;;;;;;12.73;7.40;;;;;;;17.58;32.96;100514.75;4949279;28;106146;-77
2021/10/11 12:43:15;;;;;;;9.43;6.65;;;;;;;17.39;33.25;100519.09;4949942;28;105920;-73
2021/10/11 12:45:41;;;;;;;11.27;6.97;;;;;;;17.38;33.69;100509.34;4948663;28;106067;-72
2021/10/11 12:48:06;;;;;;;11.13;6.78;;;;;;;17.35;33.81;100515.16;4946583;28;106031;-72
2021/10/11 12:50:32;;;;;;;10.00;6.57;;;;;;;17.17;33.85;100511.22;4946452;28;106483;-72
2021/10/11 12:52:58;;;;;;;10.35;6.00;;;;;;;16.90;34.10;100513.88;4948717;28;106274;-75
2021/10/11 12:55:25;;;;;;;12.98;6.63;;;;;;;16.54;34.78;100514.19;4956962;28;106803;-74
2021/10/11 12:58:03;;;;;;;9.60;7.57;;;;;;;16.26;35.50;100512.38;4927766;28;107706;-73
2021/10/11 13:00:28;;;;;;;11.57;7.50;;;;;;;16.13;35.83;100512.31;4927750;28;106118;-71
2021/10/11 13:02:54;;;;;;;13.45;7.80;;;;;;;16.01;36.16;100509.38;4928763;28;106501;-71
2021/10/11 13:05:20;;;;;;;10.75;6.72;;;;;;;15.76;36.46;100491.03;4927301;28;106648;-72
2021/10/11 13:07:45;;;;;;;10.68;7.15;;;;;;;15.64;36.75;100498.78;4928178;28;106382;-72
2021/10/11 13:10:13;;;;;;;12.23;7.22;;;;;;;15.54;36.77;100495.59;4938659;28;106569;-71
2021/10/11 13:12:39;;;;;;;12.23;7.00;;;;;;;15.37;36.68;100487.03;4946955;28;106072;-72
2021/10/11 13:15:06;;;;;;;10.13;6.47;;;;;;;15.20;37.21;100487.31;4946364;28;106221;-72
2021/10/11 13:17:32;;;;;;;13.18;7.00;;;;;;;15.11;37.73;100493.00;4946768;28;106634;-73
2021/10/11 13:19:57;;;;;;;16.38;6.65;;;;;;;15.04;37.75;100492.94;4946706;28;106084;-74
2021/10/11 13:22:23;;;;;;;10.38;7.07;;;;;;;14.98;37.72;100493.69;4947351;28;105936;-73
2021/10/11 13:24:49;;;;;;;10.90;7.43;;;;;;;14.88;38.04;100489.50;4947270;28;106785;-73
2021/10/11 13:27:14;;;;;;;12.23;6.63;;;;;;;14.81;38.47;100493.13;4946748;28;106083;-73
2021/10/11 14:27:56;;;;;;;19.92;10.38;;;;;;;13.85;42.79;100461.88;5061015;27;105965;-72
2021/10/11 15:59:59;;;;;;;23.77;14.48;;;;;;;11.59;53.01;100436.97;5068412;27;106042;-71
2021/10/11 16:02:42;;;;;;;27.23;15.45;;;;;;;11.51;53.33;100442.34;5069040;27;106093;-71
2021/10/11 16:05:08;;;;;;;20.42;13.68;;;;;;;11.45;53.61;100443.81;5064249;27;106202;-70
2021/10/11 16:07:33;;;;;;;27.80;15.35;;;;;;;11.37;54.28;100435.84;5055465;27;106450;-71
2021/10/11 16:09:59;;;;;;;26.77;16.05;;;;;;;11.31;53.83;100434.69;5055897;27;106000;-70
2021/10/11 16:12:25;;;;;;;23.65;16.05;;;;;;;11.31;54.62;100442.69;5050059;27;106471;-75
2021/10/11 16:14:51;;;;;;;33.67;16.33;;;;;;;11.29;54.47;100438.53;5059446;27;106147;-73
2021/10/11 16:17:16;;;;;;;26.67;16.55;;;;;;;11.26;54.86;100439.72;5068162;27;106074;-71
2021/10/11 16:19:41;;;;;;;28.85;15.07;;;;;;;11.25;55.13;100429.19;5067878;27;106403;-71
2021/10/11 16:22:07;;;;;;;28.00;15.88;;;;;;;11.23;54.96;100433.88;5062126;27;106261;-70
2021/10/11 16:24:32;;;;;;;28.00;17.08;;;;;;;11.22;55.67;100435.72;5057049;27;106173;-70
2021/10/11 16:26:58;;;;;;;29.00;17.55;;;;;;;11.22;55.48;100434.88;5066966;27;106040;-73
2021/10/11 16:29:23;;;;;;;23.42;16.55;;;;;;;11.20;55.69;100436.88;5067845;27;106099;-70
2021/10/11 16:31:50;;;;;;;24.83;16.73;;;;;;;11.20;55.47;100436.88;5068512;27;106626;-72
2021/10/11 16:34:21;;;;;;;28.00;17.67;;;;;;;11.18;55.82;100431.69;5067580;27;106127;-71
2021/10/11 16:36:46;;;;;;;28.15;16.88;;;;;;;11.18;55.89;100437.03;5067961;27;106043;-69
2021/10/11 16:39:12;;;;;;;27.30;16.55;;;;;;;11.17;56.21;100433.53;5068148;27;106141;-69
2021/10/11 16:41:37;;;;;;;26.83;16.42;;;;;;;11.15;56.38;100435.56;5068883;27;105963;-70
2021/10/11 16:44:02;;;;;;;27.05;16.52;;;;;;;11.12;56.14;100438.53;5067726;27;106505;-71
2021/10/11 16:46:28;;;;;;;30.25;16.27;;;;;;;11.12;56.41;100435.88;5067268;27;106151;-69
2021/10/11 16:48:53;;;;;;;30.90;18.55;;;;;;;11.11;56.72;100447.56;5064201;27;106035;-69
2021/10/11 16:51:18;;;;;;;26.75;16.58;;;;;;;11.07;57.01;100438.22;5065517;27;105958;-71
2021/10/11 16:56:25;;;;;;;;;;;;;;;11.07;56.91;100445.38;5064694;27;106438;-69
2021/10/11 16:58:50;;;;;;;24.38;15.32;;;;;;;11.04;56.88;100441.22;4933734;27;107205;-68
2021/10/11 17:01:43;;;;;;;23.90;14.02;;;;;;;11.03;57.43;100449.38;4950183;27;107015;-70
2021/10/11 17:04:09;;;;;;;26.08;15.10;;;;;;;11.02;57.37;100448.56;4953587;28;107198;-69
2021/10/11 17:06:35;;;;;;;22.40;14.57;;;;;;;11.02;57.86;100443.22;4983519;28;106239;-69
2021/10/11 17:09:02;;;;;;;21.63;14.18;;;;;;;11.00;57.63;100446.06;4981613;28;106533;-77
2021/10/11 17:11:28;;;;;;;26.38;16.42;;;;;;;11.01;57.78;100444.22;4982764;28;106472;-71
2021/10/11 17:13:57;;;;;;;25.02;15.50;;;;;;;11.00;57.93;100445.22;4983833;28;106339;-69
2021/10/11 17:16:22;;;;;;;24.45;14.50;;;;;;;11.00;58.20;100445.22;4983176;28;106252;-70
2021/10/11 17:18:48;;;;;;;25.38;14.52;;;;;;;10.98;58.78;100436.56;4983222;28;105898;-72
2021/10/11 17:21:13;;;;;;;27.88;14.52;;;;;;;10.96;58.56;100443.88;4982567;28;106057;-70
2021/10/11 17:23:38;;;;;;;24.40;14.50;;;;;;;10.96;58.99;100443.88;4983569;28;105997;-71
2021/10/11 17:26:04;;;;;;;27.23;14.02;;;;;;;10.93;58.58;100444.22;4983202;28;106167;-71
2021/10/11 17:28:29;;;;;;;22.92;15.77;;;;;;;10.90;58.92;100439.22;4982855;28;106288;-71
2021/10/11 17:30:55;;;;;;;23.50;15.02;;;;;;;10.87;59.52;100444.88;4982440;28;106878;-69
2021/10/11 17:33:20;;;;;;;26.90;14.48;;;;;;;10.83;59.57;100450.53;4983262;28;106104;-68
2021/10/11 17:35:46;;;;;;;23.63;15.10;;;;;;;10.81;59.83;100447.22;4982959;28;106217;-68
2021/10/11 17:38:11;;;;;;;20.38;12.95;;;;;;;10.81;59.88;100452.53;4982734;28;106497;-68
2021/10/11 17:40:37;;;;;;;23.65;14.68;;;;;;;10.79;60.44;100443.88;4981896;28;106067;-68
2021/10/11 17:43:03;;;;;;;19.92;13.55;;;;;;;10.77;60.25;100445.03;4982816;28;106109;-69
2021/10/11 17:45:29;;;;;;;22.52;13.52;;;;;;;10.75;60.17;100444.38;4981996;28;106172;-69
2021/10/11 17:47:55;;;;;;;21.20;14.27;;;;;;;10.72;60.52;100442.88;4982047;28;106198;-69
2021/10/11 17:50:20;;;;;;;20.63;13.50;;;;;;;10.72;60.66;100447.38;4981686;28;105954;-71
2021/10/11 17:52:48;;;;;;;19.02;13.45;;;;;;;10.72;60.77;100444.72;4976229;28;107077;-69
2021/10/11 17:55:14;;;;;;;21.40;13.07;;;;;;;10.68;61.10;100444.19;4983672;28;106233;-69
2021/10/11 17:57:39;;;;;;;19.75;12.77;;;;;;;10.66;61.08;100454.19;4981641;28;109887;-69
2021/10/11 18:00:06;;;;;;;16.08;11.20;;;;;;;10.62;60.94;100455.50;4982157;28;105992;-69
2021/10/11 18:02:32;;;;;;;18.60;11.68;;;;;;;10.56;61.23;100448.19;4983775;28;105904;-68
2021/10/11 18:04:57;;;;;;;20.35;11.90;;;;;;;10.47;61.40;100449.97;4984077;28;105882;-69
2021/10/11 18:07:22;;;;;;;19.38;11.63;;;;;;;10.36;61.31;100460.94;4983476;28;106329;-69
2021/10/11 18:09:48;;;;;;;16.90;11.18;;;;;;;10.20;61.24;100456.34;4983698;28;106936;-68
2021/10/11 18:12:13;;;;;;;22.10;10.68;;;;;;;10.09;61.77;100453.00;4975378;28;105914;-69
2021/10/11 18:14:38;;;;;;;24.48;12.23;;;;;;;9.96;61.89;100457.94;4970123;28;106215;-69
2021/10/11 18:17:04;;;;;;;18.27;11.27;;;;;;;9.82;62.01;100460.19;4970093;28;106037;-70
2021/10/11 18:19:29;;;;;;;22.75;14.18;;;;;;;9.70;62.35;100463.31;4969850;28;106470;-69
2021/10/11 18:21:55;;;;;;;20.48;12.88;;;;;;;9.59;62.56;100451.09;4970234;28;106358;-68
2021/10/11 18:24:20;;;;;;;21.15;13.20;;;;;;;9.49;63.31;100453.88;4969646;28;105861;-69
2021/10/11 18:26:46;;;;;;;20.80;13.18;;;;;;;9.40;63.54;100462.78;4969898;28;107754;-69
2021/10/11 18:29:11;;;;;;;23.85;13.27;;;;;;;9.31;63.21;100459.25;4968383;28;107527;-71
2021/10/11 18:31:38;;;;;;;19.05;13.10;;;;;;;9.20;63.85;100455.00;4970927;28;105985;-70
2021/10/11 18:34:04;;;;;;;21.38;13.07;;;;;;;9.10;64.01;100457.78;4970448;28;106229;-70
2021/10/11 18:36:34;;;;;;;22.60;13.45;;;;;;;9.00;64.28;100451.69;4970130;28;105794;-70
2021/10/11 18:39:01;;;;;;;22.23;13.88;;;;;;;8.91;64.30;100456.13;4968845;28;105995;-71
2021/10/11 18:41:30;;;;;;;20.35;12.90;;;;;;;8.87;64.91;100452.09;4969016;28;106007;-70
2021/10/11 18:43:56;;;;;;;22.95;13.15;;;;;;;8.77;64.54;100460.13;4967366;28;106173;-69
2021/10/11 18:46:22;;;;;;;25.38;16.35;;;;;;;8.69;65.36;100451.25;4967373;28;106351;-70
2021/10/11 18:48:47;;;;;;;20.25;13.10;;;;;;;8.60;65.17;100453.81;4969843;28;105911;-69
2021/10/11 18:51:13;;;;;;;22.00;12.57;;;;;;;8.53;65.33;100454.56;4970760;28;106205;-69
2021/10/11 18:53:39;;;;;;;20.20;12.90;;;;;;;8.44;65.90;100451.78;4970148;28;106184;-68